ACA113 CYEG-CYYC
Flight info
| Callsign | ACA113 |
|---|---|
| Flight time | 0h 36m |
| Altitude | 22000 |
| Route | OLIMI Q814 AMUNO/N0363F210 Q814 ADVOX ADVOX9 |
| Aircraft | A320/M-SDE3FGHIRWY/LB1 |
Departure
| Time | 2026-05-05 21:41 |
|---|---|
| Airport | Edmonton International Airport (CYEG) |
Arrival
| Time | 2026-05-05 22:17 |
|---|---|
| Airport | Calgary International Airport (CYYC) |
| Time | Latitude | Longitude | Altitude | Speed | Heading |
|---|---|---|---|---|---|
| 2026-05-05 21:16 | 53.30603 | -113.58481 | 2339 ft | 0 kts | 69° |
| 2026-05-05 21:17 | 53.30966 | -113.58673 | 2338 ft | 0 kts | 86° |
| 2026-05-05 21:34 | 53.30965 | -113.58712 | 2335 ft | 4 kts | 86° |
| 2026-05-05 21:34 | 53.30963 | -113.58757 | 2338 ft | 4 kts | 86° |
| 2026-05-05 21:34 | 53.30961 | -113.58802 | 2334 ft | 4 kts | 86° |
| 2026-05-05 21:34 | 53.30961 | -113.58822 | 2334 ft | 0 kts | 86° |
| 2026-05-05 21:37 | 53.30950 | -113.58799 | 2334 ft | 8 kts | 143° |
| 2026-05-05 21:37 | 53.30880 | -113.58802 | 2334 ft | 10 kts | 215° |
| 2026-05-05 21:37 | 53.30855 | -113.58898 | 2334 ft | 9 kts | 264° |
| 2026-05-05 21:37 | 53.30848 | -113.59001 | 2333 ft | 11 kts | 264° |
| 2026-05-05 21:38 | 53.30840 | -113.59160 | 2333 ft | 17 kts | 265° |
| 2026-05-05 21:38 | 53.30829 | -113.59367 | 2332 ft | 15 kts | 268° |
| 2026-05-05 21:38 | 53.30849 | -113.59451 | 2332 ft | 0 kts | 313° |
| 2026-05-05 21:39 | 53.30856 | -113.59464 | 2332 ft | 4 kts | 313° |
| 2026-05-05 21:39 | 53.30892 | -113.59529 | 2332 ft | 10 kts | 313° |
| 2026-05-05 21:40 | 53.30958 | -113.59540 | 2334 ft | 10 kts | 20° |
| 2026-05-05 21:40 | 53.30981 | -113.59517 | 2335 ft | 0 kts | 34° |
| 2026-05-05 21:40 | 53.31026 | -113.59465 | 2335 ft | 33 kts | 34° |
| 2026-05-05 21:41 | 53.31418 | -113.59010 | 2338 ft | 100 kts | 35° |
| 2026-05-05 21:41 | 53.32140 | -113.58173 | 2340 ft | 150 kts | 35° |
| 2026-05-05 21:41 | 53.33017 | -113.57137 | 2890 ft | 147 kts | 36° |
| 2026-05-05 21:41 | 53.33855 | -113.56153 | 3648 ft | 148 kts | 33° |
| 2026-05-05 21:42 | 53.34729 | -113.55142 | 4266 ft | 162 kts | 33° |
| 2026-05-05 21:42 | 53.35714 | -113.53998 | 4741 ft | 184 kts | 33° |
| 2026-05-05 21:42 | 53.36823 | -113.52700 | 5099 ft | 206 kts | 32° |
| 2026-05-05 21:42 | 53.38018 | -113.51190 | 5529 ft | 226 kts | 44° |
| 2026-05-05 21:43 | 53.39128 | -113.49133 | 5969 ft | 250 kts | 43° |
| 2026-05-05 21:43 | 53.40314 | -113.46807 | 6374 ft | 275 kts | 60° |
| 2026-05-05 21:43 | 53.40669 | -113.43721 | 6814 ft | 279 kts | 96° |
| 2026-05-05 21:43 | 53.39857 | -113.40776 | 7721 ft | 286 kts | 131° |
| 2026-05-05 21:44 | 53.38189 | -113.38968 | 8625 ft | 292 kts | 164° |
| 2026-05-05 21:44 | 53.36175 | -113.38888 | 9467 ft | 294 kts | 197° |
| 2026-05-05 21:44 | 53.34365 | -113.40454 | 10274 ft | 297 kts | 217° |
| 2026-05-05 21:44 | 53.32614 | -113.42525 | 10574 ft | 320 kts | 217° |
| 2026-05-05 21:45 | 53.30743 | -113.44754 | 10963 ft | 337 kts | 217° |
| 2026-05-05 21:45 | 53.28814 | -113.47061 | 11631 ft | 344 kts | 218° |
| 2026-05-05 21:45 | 53.26787 | -113.49271 | 12333 ft | 352 kts | 211° |
| 2026-05-05 21:45 | 53.24567 | -113.51096 | 13025 ft | 360 kts | 205° |
| 2026-05-05 21:46 | 53.22223 | -113.52675 | 13723 ft | 366 kts | 202° |
| 2026-05-05 21:46 | 53.19807 | -113.54148 | 14326 ft | 373 kts | 201° |
| 2026-05-05 21:46 | 53.17336 | -113.55633 | 14854 ft | 381 kts | 202° |
| 2026-05-05 21:46 | 53.14822 | -113.57184 | 15364 ft | 389 kts | 203° |
| 2026-05-05 21:47 | 53.12275 | -113.58817 | 15886 ft | 397 kts | 204° |
| 2026-05-05 21:47 | 53.09685 | -113.60529 | 16398 ft | 404 kts | 205° |
| 2026-05-05 21:47 | 53.07051 | -113.62301 | 16910 ft | 412 kts | 206° |
| 2026-05-05 21:47 | 53.04373 | -113.64117 | 17413 ft | 419 kts | 206° |
| 2026-05-05 21:48 | 53.01647 | -113.65967 | 17921 ft | 427 kts | 206° |
| 2026-05-05 21:48 | 52.98872 | -113.67842 | 18418 ft | 434 kts | 206° |
| 2026-05-05 21:48 | 52.96090 | -113.69712 | 18869 ft | 441 kts | 206° |
| 2026-05-05 21:48 | 52.93227 | -113.71622 | 19364 ft | 446 kts | 206° |
| 2026-05-05 21:49 | 52.90335 | -113.73542 | 19883 ft | 449 kts | 206° |
| 2026-05-05 21:49 | 52.87418 | -113.75469 | 20416 ft | 453 kts | 206° |
| 2026-05-05 21:49 | 52.84477 | -113.77406 | 20950 ft | 457 kts | 206° |
| 2026-05-05 21:49 | 52.81513 | -113.79357 | 21481 ft | 460 kts | 206° |
| 2026-05-05 21:50 | 52.78532 | -113.81324 | 21996 ft | 464 kts | 206° |
| 2026-05-05 21:50 | 52.75525 | -113.83308 | 22223 ft | 466 kts | 206° |
| 2026-05-05 21:50 | 52.72538 | -113.85273 | 22267 ft | 460 kts | 206° |
| 2026-05-05 21:50 | 52.69576 | -113.87214 | 22264 ft | 457 kts | 206° |
| 2026-05-05 21:51 | 52.66621 | -113.89148 | 22260 ft | 456 kts | 206° |
| 2026-05-05 21:51 | 52.63676 | -113.91079 | 22259 ft | 456 kts | 206° |
| 2026-05-05 21:51 | 52.60734 | -113.93010 | 22261 ft | 456 kts | 206° |
| 2026-05-05 21:51 | 52.57786 | -113.94944 | 22257 ft | 456 kts | 206° |
| 2026-05-05 21:52 | 52.51897 | -113.98793 | 22253 ft | 455 kts | 206° |
| 2026-05-05 21:52 | 52.48950 | -114.00709 | 22244 ft | 455 kts | 206° |
| 2026-05-05 21:52 | 52.46007 | -114.02622 | 22236 ft | 455 kts | 206° |
| 2026-05-05 21:53 | 52.43067 | -114.04534 | 22229 ft | 455 kts | 206° |
| 2026-05-05 21:53 | 52.40121 | -114.06446 | 22228 ft | 455 kts | 206° |
| 2026-05-05 21:53 | 52.37180 | -114.08350 | 22229 ft | 455 kts | 206° |
| 2026-05-05 21:53 | 52.34237 | -114.10252 | 22223 ft | 455 kts | 206° |
| 2026-05-05 21:54 | 52.31294 | -114.12151 | 22220 ft | 455 kts | 206° |
| 2026-05-05 21:54 | 52.28351 | -114.14049 | 22216 ft | 455 kts | 206° |
| 2026-05-05 21:54 | 52.25413 | -114.15946 | 22214 ft | 454 kts | 206° |
| 2026-05-05 21:54 | 52.22474 | -114.17843 | 22215 ft | 454 kts | 206° |
| 2026-05-05 21:55 | 52.19537 | -114.19731 | 22214 ft | 454 kts | 206° |
| 2026-05-05 21:55 | 52.16601 | -114.21611 | 22215 ft | 454 kts | 206° |
| 2026-05-05 21:55 | 52.13661 | -114.23492 | 22216 ft | 453 kts | 206° |
| 2026-05-05 21:55 | 52.10725 | -114.25370 | 22222 ft | 453 kts | 206° |
| 2026-05-05 21:56 | 52.07792 | -114.27243 | 22215 ft | 453 kts | 206° |
| 2026-05-05 21:56 | 52.04859 | -114.29111 | 22225 ft | 453 kts | 206° |
| 2026-05-05 21:56 | 52.01922 | -114.30977 | 22224 ft | 453 kts | 206° |
| 2026-05-05 21:56 | 51.98988 | -114.32838 | 22231 ft | 453 kts | 206° |
| 2026-05-05 21:57 | 51.96057 | -114.34698 | 22233 ft | 453 kts | 206° |
| 2026-05-05 21:57 | 51.93123 | -114.36560 | 22230 ft | 452 kts | 206° |
| 2026-05-05 21:57 | 51.90195 | -114.38417 | 22234 ft | 452 kts | 206° |
| 2026-05-05 21:57 | 51.87302 | -114.40250 | 22229 ft | 452 kts | 206° |
| 2026-05-05 21:58 | 51.84376 | -114.42097 | 22142 ft | 449 kts | 206° |
| 2026-05-05 21:58 | 51.81498 | -114.43906 | 21879 ft | 440 kts | 206° |
| 2026-05-05 21:58 | 51.78670 | -114.45681 | 21609 ft | 432 kts | 206° |
| 2026-05-05 21:58 | 51.75880 | -114.47435 | 21351 ft | 429 kts | 206° |
| 2026-05-05 21:59 | 51.73115 | -114.49170 | 21006 ft | 425 kts | 206° |
| 2026-05-05 21:59 | 51.70355 | -114.50901 | 20466 ft | 426 kts | 206° |
| 2026-05-05 21:59 | 51.67593 | -114.52630 | 19946 ft | 426 kts | 206° |
| 2026-05-05 21:59 | 51.64828 | -114.54362 | 19421 ft | 427 kts | 205° |
| 2026-05-05 22:00 | 51.61973 | -114.55731 | 18899 ft | 432 kts | 192° |
| 2026-05-05 22:00 | 51.58961 | -114.56061 | 18161 ft | 439 kts | 175° |
| 2026-05-05 22:00 | 51.55992 | -114.55159 | 17797 ft | 430 kts | 160° |
| 2026-05-05 22:00 | 51.53273 | -114.53278 | 17301 ft | 422 kts | 145° |
| 2026-05-05 22:01 | 51.50899 | -114.50655 | 16988 ft | 411 kts | 139° |
| 2026-05-05 22:01 | 51.48587 | -114.47962 | 16511 ft | 407 kts | 139° |
| 2026-05-05 22:01 | 51.46481 | -114.45047 | 15812 ft | 393 kts | 130° |
| 2026-05-05 22:01 | 51.44563 | -114.42041 | 15406 ft | 378 kts | 131° |
| 2026-05-05 22:02 | 51.42705 | -114.39132 | 14999 ft | 372 kts | 131° |
| 2026-05-05 22:02 | 51.40859 | -114.36238 | 14574 ft | 371 kts | 132° |
| 2026-05-05 22:02 | 51.39019 | -114.33352 | 14165 ft | 370 kts | 132° |
| 2026-05-05 22:02 | 51.37178 | -114.30474 | 13707 ft | 369 kts | 133° |
| 2026-05-05 22:03 | 51.35345 | -114.27621 | 13283 ft | 366 kts | 133° |
| 2026-05-05 22:03 | 51.33527 | -114.24798 | 12850 ft | 363 kts | 133° |
| 2026-05-05 22:03 | 51.31726 | -114.21998 | 12418 ft | 360 kts | 134° |
| 2026-05-05 22:03 | 51.29883 | -114.19370 | 11985 ft | 349 kts | 143° |
| 2026-05-05 22:04 | 51.27812 | -114.17532 | 11560 ft | 334 kts | 159° |
| 2026-05-05 22:04 | 51.25620 | -114.16566 | 11152 ft | 320 kts | 173° |
| 2026-05-05 22:04 | 51.23455 | -114.16394 | 10923 ft | 301 kts | 182° |
| 2026-05-05 22:04 | 51.21427 | -114.16402 | 10784 ft | 282 kts | 181° |
| 2026-05-05 22:05 | 51.19527 | -114.16391 | 10640 ft | 264 kts | 181° |
| 2026-05-05 22:05 | 51.17717 | -114.16376 | 10243 ft | 259 kts | 181° |
| 2026-05-05 22:05 | 51.15887 | -114.16365 | 9693 ft | 262 kts | 181° |
| 2026-05-05 22:05 | 51.14107 | -114.16355 | 9388 ft | 252 kts | 181° |
| 2026-05-05 22:06 | 51.12359 | -114.16350 | 8881 ft | 252 kts | 181° |
| 2026-05-05 22:06 | 51.10596 | -114.16348 | 8384 ft | 251 kts | 181° |
| 2026-05-05 22:06 | 51.08889 | -114.16350 | 8215 ft | 238 kts | 181° |
| 2026-05-05 22:06 | 51.07274 | -114.16343 | 8110 ft | 229 kts | 180° |
| 2026-05-05 22:07 | 51.05684 | -114.16330 | 7945 ft | 228 kts | 180° |
| 2026-05-05 22:07 | 51.04121 | -114.16322 | 7714 ft | 221 kts | 180° |
| 2026-05-05 22:07 | 51.02596 | -114.16323 | 7435 ft | 217 kts | 180° |
| 2026-05-05 22:07 | 51.01100 | -114.16327 | 7202 ft | 212 kts | 180° |
| 2026-05-05 22:08 | 50.99615 | -114.16338 | 6835 ft | 214 kts | 180° |
| 2026-05-05 22:08 | 50.98140 | -114.16357 | 6548 ft | 209 kts | 181° |
| 2026-05-05 22:08 | 50.96748 | -114.16370 | 6521 ft | 191 kts | 180° |
| 2026-05-05 22:08 | 50.95469 | -114.16382 | 6515 ft | 179 kts | 180° |
| 2026-05-05 22:09 | 50.94231 | -114.16378 | 6526 ft | 176 kts | 179° |
| 2026-05-05 22:09 | 50.93006 | -114.16361 | 6539 ft | 176 kts | 180° |
| 2026-05-05 22:09 | 50.91798 | -114.16339 | 6555 ft | 176 kts | 179° |
| 2026-05-05 22:09 | 50.90569 | -114.16320 | 6533 ft | 174 kts | 179° |
| 2026-05-05 22:10 | 50.89380 | -114.16208 | 6537 ft | 174 kts | 160° |
| 2026-05-05 22:10 | 50.88455 | -114.15099 | 6547 ft | 166 kts | 113° |
| 2026-05-05 22:10 | 50.88187 | -114.13386 | 6557 ft | 161 kts | 89° |
| 2026-05-05 22:10 | 50.88166 | -114.11633 | 6547 ft | 159 kts | 84° |
| 2026-05-05 22:11 | 50.88186 | -114.09888 | 6542 ft | 159 kts | 84° |
| 2026-05-05 22:11 | 50.88220 | -114.08139 | 6535 ft | 158 kts | 80° |
| 2026-05-05 22:11 | 50.88638 | -114.06645 | 6535 ft | 148 kts | 38° |
| 2026-05-05 22:11 | 50.89497 | -114.05729 | 6543 ft | 150 kts | 26° |
| 2026-05-05 22:12 | 50.90435 | -114.04974 | 6527 ft | 152 kts | 24° |
| 2026-05-05 22:12 | 50.91389 | -114.04237 | 6525 ft | 153 kts | 24° |
| 2026-05-05 22:12 | 50.92343 | -114.03509 | 6520 ft | 152 kts | 23° |
| 2026-05-05 22:12 | 50.93302 | -114.02775 | 6519 ft | 152 kts | 24° |
| 2026-05-05 22:13 | 50.94282 | -114.02171 | 6508 ft | 151 kts | 2° |
| 2026-05-05 22:13 | 50.95348 | -114.02227 | 6448 ft | 153 kts | 1° |
| 2026-05-05 22:13 | 50.96409 | -114.02185 | 6284 ft | 152 kts | 2° |
| 2026-05-05 22:13 | 50.97454 | -114.02164 | 6112 ft | 153 kts | 360° |
| 2026-05-05 22:14 | 50.98511 | -114.02154 | 5905 ft | 152 kts | 0° |
| 2026-05-05 22:14 | 50.99563 | -114.02148 | 5703 ft | 151 kts | 1° |
| 2026-05-05 22:14 | 51.00613 | -114.02145 | 5488 ft | 151 kts | 360° |
| 2026-05-05 22:14 | 51.01663 | -114.02144 | 5285 ft | 151 kts | 360° |
| 2026-05-05 22:15 | 51.02706 | -114.02142 | 5077 ft | 150 kts | 0° |
| 2026-05-05 22:15 | 51.03747 | -114.02141 | 4875 ft | 149 kts | 1° |
| 2026-05-05 22:15 | 51.04788 | -114.02140 | 4651 ft | 150 kts | 1° |
| 2026-05-05 22:15 | 51.05834 | -114.02139 | 4383 ft | 150 kts | 1° |
| 2026-05-05 22:16 | 51.06875 | -114.02138 | 4140 ft | 150 kts | 0° |
| 2026-05-05 22:16 | 51.07916 | -114.02137 | 3932 ft | 149 kts | 1° |
| 2026-05-05 22:16 | 51.08952 | -114.02136 | 3736 ft | 149 kts | 1° |
| 2026-05-05 22:16 | 51.09652 | -114.02136 | 3607 ft | 148 kts | 0° |
| 2026-05-05 22:17 | 51.10630 | -114.02134 | 3552 ft | 122 kts | 0° |
| 2026-05-05 22:17 | 51.11238 | -114.02133 | 3555 ft | 71 kts | 0° |
| 2026-05-05 22:17 | 51.11686 | -114.02137 | 3554 ft | 58 kts | 359° |
| 2026-05-05 22:17 | 51.12024 | -114.02136 | 3561 ft | 44 kts | 0° |
| 2026-05-05 22:18 | 51.12286 | -114.02101 | 3559 ft | 26 kts | 41° |
| 2026-05-05 22:18 | 51.12399 | -114.01982 | 3561 ft | 19 kts | 28° |
| 2026-05-05 22:18 | 51.12491 | -114.01902 | 3561 ft | 0 kts | 30° |
| 2026-05-05 22:19 | 51.12501 | -114.01893 | 3561 ft | 4 kts | 30° |
| 2026-05-05 22:20 | 51.12538 | -114.01859 | 3562 ft | 8 kts | 30° |
| 2026-05-05 22:20 | 51.12587 | -114.01782 | 3560 ft | 12 kts | 62° |
| 2026-05-05 22:20 | 51.12604 | -114.01643 | 3562 ft | 14 kts | 89° |
| 2026-05-05 22:20 | 51.12609 | -114.01481 | 3563 ft | 15 kts | 75° |
| 2026-05-05 22:21 | 51.12677 | -114.01361 | 3563 ft | 15 kts | 39° |
| 2026-05-05 22:21 | 51.12768 | -114.01333 | 3563 ft | 15 kts | 327° |
| 2026-05-05 22:21 | 51.12790 | -114.01369 | 3565 ft | 0 kts | 311° |
| 2026-05-05 22:21 | 51.12791 | -114.01369 | 3565 ft | 1 kts | 311° |
| 2026-05-05 22:22 | 51.12801 | -114.01388 | 3563 ft | 4 kts | 311° |
| 2026-05-05 22:22 | 51.12817 | -114.01426 | 3565 ft | 3 kts | 302° |
| 2026-05-05 22:22 | 51.12828 | -114.01449 | 3561 ft | 2 kts | 308° |
| 2026-05-05 22:22 | 51.12843 | -114.01473 | 3563 ft | 4 kts | 320° |
| 2026-05-05 22:23 | 51.12863 | -114.01471 | 3561 ft | 2 kts | 25° |
| 2026-05-05 22:23 | 51.12872 | -114.01453 | 3565 ft | 2 kts | 53° |
| 2026-05-05 22:23 | 51.12877 | -114.01434 | 3565 ft | 3 kts | 66° |
| 2026-05-05 22:23 | 51.12889 | -114.01381 | 3562 ft | 5 kts | 75° |
| 2026-05-05 22:24 | 51.12891 | -114.01367 | 3565 ft | 3 kts | 76° |
| 2026-05-05 22:24 | 51.12893 | -114.01356 | 3565 ft | 0 kts | 76° |